Tiempo atmosférico en la estación meteorológica de Manacor, Illes Balears (100 m.)



Fecha
DESCASC
Temp. máxima en grados centígrados (hora)
DESCASC
Temp. mínima en grados centígrados (hora)
DESCASC
Temp. media en grados centígrados
DESCASC
Racha de viento máxima en m/sg (hora)
DESCASC
Velocidad máxima media en intervalos de 10 minutos(hora)
DESCASC
Precipitaciones diarias en mm
DESCASC
Precipitaciones de 00:00 a 06:00 en mm
DESCASC
Precipitaciones de 06:00 a 12:00 en mm
DESCASC
Precipitaciones de 12:00 a 18:00 en mm
DESCASC
Precipitaciones de 18:00 a 24:00 en mm
DESCASC
22-04-2019 15.2 (15:20) 12.9 (01:00) 14 11.67 (03:00) 6.11 (03:00) 4.4 2 1 1.2 0.2
21-04-2019 15.6 (15:20) 13.2 (22:00) 14.4 13.61 (19:00) 7.5 (19:00) 4 0 0.2 0 3.8
20-04-2019 18.8 (13:10) 14.2 (23:59) 16.5 19.44 (13:50) 11.11 (15:10) 0 0 0 0 0
19-04-2019 16 (14:20) 13.9 (07:00) 14.9 15.83 (13:00) 8.33 (14:50) 0.6 0 0.6 0 0
18-04-2019 19 (13:20) 13.1 (00:00) 16.1 15.28 (18:00) 8.06 (18:00) 0 0 0 0 0
17-04-2019 18.7 (13:20) 8 (00:00) 13.4 9.72 (17:00) 5 (16:30) 0 0 0 0 0
16-04-2019 20.7 (13:40) 9.2 (00:00) 15 7.5 (13:30) 3.61 (13:50) 0.2 0 0.2 0 0
15-04-2019 18.6 (13:20) 8.2 (00:00) 13.4 8.89 (13:40) 4.17 (14:10) 0 0 0 0 0
14-04-2019 24.4 (14:20) 11.4 (00:00) 17.9 10.83 (14:30) 7.78 (10:20) 0 0 0 0 0
13-04-2019 21 (17:40) 5.4 (00:00) 13.2 9.44 (14:30) 6.11 (14:30) 0 0 0 0 0
12-04-2019 17.8 (10:50) 8.5 (00:00) 13.1 7.78 (10:20) 4.17 (10:20) 3.2 0 0 3.2 0
11-04-2019 19 (12:40) 8.5 (00:00) 13.8 8.33 (14:40) 4.72 (14:40) 0.6 0 0 0.6 0
10-04-2019 18.1 (14:00) 9.7 (00:00) 13.9 11.67 (13:10) 6.11 (01:30) 3.6 0 2.6 1 0
09-04-2019 19.3 (12:20) 12.7 (00:00) 16 11.39 (09:40) 7.22 (09:20) 0 0 0 0 0
08-04-2019 19.3 (16:20) 4.2 (00:00) 11.7 11.11 (13:10) 6.67 (12:40) 0 0 0 0 0
07-04-2019 16.5 (15:50) 7.4 (00:00) 12 10.56 (16:50) 6.11 (16:00) 0 0 0 0 0
06-04-2019 15.9 (15:20) 8.2 (00:00) 12 14.17 (16:20) 8.33 (16:20) 3.2 3.2 0 0 0
05-04-2019 17.7 (13:10) 2.8 (00:00) 10.3 10.83 (15:40) 5.28 (13:20) 0.4 0 0 0 0.4
04-04-2019 17 (16:20) 6.9 (00:00) 12 9.44 (01:20) 4.44 (13:50) 0.4 0.4 0 0 0
03-04-2019 19.4 (15:20) 12.6 (00:00) 16 10.28 (15:40) 6.67 (15:50) 0 0 0 0 0
02-04-2019 19.5 (15:20) 6.9 (00:00) 13.2 9.17 (16:30) 5.56 (16:30) 0 0 0 0 0
01-04-2019 19.2 (15:10) 11.1 (00:00) 15.2 6.39 (16:00) 3.33 (02:00) 0 0 0 0 0
31-03-2019 16.7 (12:40) 10.6 (00:00) 13.7 8.89 (13:00) 4.44 (21:40) 0.4 0 0 0 0.4
30-03-2019 16.8 (11:10) 5.5 (00:00) 11.1 7.5 (13:50) 3.89 (17:30) 0 0 0 0 0
29-03-2019 17.4 (14:20) 3.7 (00:00) 10.5 7.78 (10:10) 3.89 (10:10) 0 0 0 0 0
28-03-2019 18.5 (14:10) 5.8 (00:00) 12.2 8.89 (12:20) 5 (11:00) 0 0 0 0 0
27-03-2019 17.8 (12:50) 3.9 (00:00) 10.8 10.83 (14:20) 6.11 (14:50) 0 0 0 0 0
26-03-2019 14.5 (14:20) 4.9 (00:00) 9.7 15 (10:50) 8.06 (11:50) 0 0 0 0 0
25-03-2019 20.7 (13:20) 5.4 (00:00) 13.1 10 (11:20) 5 (10:10) 0 0 0 0 0

Gráficas

Temp. máximas Temp. mínimas Temp. medias Precipitaciones Rachas de viento máximas Velocidades máximas media en intervalos de 10 minutos

Datos horarios

Fecha y hora oficial Temperatura (ºC) Velocidad del viento (km/h) Dirección del viento Racha (km/h) Dirección de racha Precipitación (mm) Presión (hPa) Tendencia (hPa) Humedad (%)
2019-04-23 23:00:00 15 17 Sudoeste 31 Sur 0 -- -- 86
2019-04-23 22:00:00 14.9 13 Sudoeste 27 Sur 0 -- -- 85
2019-04-23 21:00:00 15.2 16 Sudoeste 48 Sudoeste 0 -- -- 84
2019-04-23 20:00:00 16.2 25 Sudoeste 45 Sudoeste 0 -- -- 80
2019-04-23 19:00:00 18.1 24 Sudoeste 52 Sudoeste 0 -- -- 73
2019-04-23 18:00:00 18.2 32 Sudoeste 53 Sudoeste 0 -- -- 73
2019-04-23 17:00:00 19.2 31 Sudoeste 47 Sudoeste 0 -- -- 68
2019-04-23 16:00:00 19.5 24 Sudoeste 43 Sudoeste 0 -- -- 73
2019-04-23 15:00:00 20 24 Sudoeste 37 Sudoeste 0 -- -- 70
2019-04-23 14:00:00 19.4 23 Sudoeste 36 Sudoeste 0 -- -- 74
2019-04-23 13:00:00 18.9 20 Sudoeste 32 Sudoeste 0 -- -- 73
2019-04-23 12:00:00 18.9 17 Sudoeste 31 Sudoeste 0 -- -- 74
2019-04-23 11:00:00 17.1 18 Sudoeste 33 Sur 0 -- -- 79
2019-04-23 10:00:00 15.7 17 Sudoeste 27 Sudoeste 0 -- -- 84
2019-04-23 09:00:00 14.4 12 Sudoeste 18 Sudoeste 0 -- -- 90
2019-04-23 08:00:00 12.7 12 Sudoeste 24 Sudoeste 0 -- -- 95
2019-04-23 07:00:00 12.4 13 Sudoeste 31 Sudoeste 0.2 -- -- 92
2019-04-23 06:00:00 12.9 10 Oeste 21 Sudoeste 0 -- -- 93
2019-04-23 05:00:00 13.7 9 Oeste 19 Oeste 0 -- -- 94
2019-04-23 04:00:00 13.8 10 Oeste 17 Sudoeste 0 -- -- 97
2019-04-23 03:00:00 13.9 9 Sudoeste 15 Oeste 0 -- -- 97
2019-04-23 02:00:00 14.2 8 Oeste 14 Noroeste 0 -- -- 98
2019-04-23 01:00:00 14.5 10 Oeste 21 Oeste 0 -- -- 98
2019-04-23 00:00:00 14.6 6 Oeste 13 Oeste 0.2 -- -- 98
2019-04-22 23:00:00 14.8 7 Noroeste 15 Noroeste 0 -- -- 98
2019-04-22 22:00:00 14.8 6 Noroeste 14 Noroeste 0 -- -- 98
2019-04-22 21:00:00 14.9 6 Noroeste 12 Noroeste 0 -- -- 97
2019-04-22 20:00:00 14.9 5 Norte 15 Noroeste 0 -- -- 97
2019-04-22 19:00:00 15 4 Noroeste 16 Norte 0 -- -- 95
2019-04-22 18:00:00 15 6 Norte 23 Nordeste 0 -- -- 96
2019-04-22 17:00:00 15 10 Nordeste 21 Nordeste 0 -- -- 96
2019-04-22 16:00:00 14.9 10 Norte 24 Norte 0 -- -- 96
2019-04-22 15:00:00 15.1 9 Norte 19 Norte 0.2 -- -- 97
2019-04-22 14:00:00 14.8 8 Norte 21 Nordeste 0.4 -- -- 97
2019-04-22 13:00:00 14.9 9 Nordeste 20 Nordeste 0.6 -- -- 97
2019-04-22 12:00:00 14.7 11 Nordeste 32 Nordeste 0.4 -- -- 97
2019-04-22 11:00:00 14.6 13 Nordeste 30 Este 0.2 -- -- 97
2019-04-22 10:00:00 14.4 18 Nordeste 33 Nordeste 0 -- -- 97
2019-04-22 09:00:00 14.1 16 Nordeste 35 Nordeste 0.2 -- -- 97
2019-04-22 08:00:00 14.2 19 Nordeste 37 Nordeste 0.2 -- -- 97
2019-04-22 07:00:00 13.8 18 Nordeste 35 Nordeste 0 -- -- 96
2019-04-22 06:00:00 13.5 17 Nordeste 34 Nordeste 0 -- -- 96
2019-04-22 05:00:00 13.3 20 Nordeste 40 Norte 0 -- -- 95
2019-04-22 04:00:00 13.1 18 Nordeste 41 Nordeste 0.2 -- -- 96
2019-04-22 03:00:00 13.2 22 Nordeste 42 Nordeste 0 -- -- 96
2019-04-22 02:00:00 13.1 17 Nordeste 36 Nordeste 0.4 -- -- 97
2019-04-22 01:00:00 12.9 12 Nordeste 22 Nordeste 1.4 -- -- 96
2019-04-22 00:00:00 13.5 13 Nordeste 33 Nordeste 1.4 -- -- 96
2019-04-21 23:00:00 13.7 17 Nordeste 39 Nordeste 1 -- -- 96
2019-04-21 22:00:00 13.2 19 Nordeste 39 Nordeste 0.2 -- -- 94
2019-04-21 21:00:00 13.3 22 Nordeste 38 Nordeste 0.6 -- -- 96
2019-04-21 20:00:00 13.5 20 Nordeste 48 Nordeste 0.4 -- -- 95
2019-04-21 19:00:00 13.8 27 Nordeste 49 Nordeste 0.2 -- -- 94
2019-04-21 18:00:00 14.1 19 Nordeste 44 Nordeste 0 -- -- 94
2019-04-21 17:00:00 14.6 22 Nordeste 41 Este 0 -- -- 92
2019-04-21 16:00:00 15.1 23 Nordeste 46 Nordeste 0 -- -- 89
2019-04-21 15:00:00 15.5 26 Nordeste 47 Nordeste 0 -- -- 89
2019-04-21 14:00:00 15.1 24 Nordeste 42 Este 0 -- -- 91
2019-04-21 13:00:00 14.7 22 Nordeste 44 Nordeste 0 -- -- 94
2019-04-21 12:00:00 14.5 18 Nordeste 38 Nordeste 0 -- -- 93
2019-04-21 11:00:00 14.6 17 Nordeste 35 Este 0 -- -- 94
2019-04-21 10:00:00 14.1 18 Nordeste 36 Este 0 -- -- 95
2019-04-21 09:00:00 13.8 18 Nordeste 37 Este 0.2 -- -- 95
2019-04-21 08:00:00 13.6 15 Nordeste 34 Este 0 -- -- 93
2019-04-21 07:00:00 14.2 21 Nordeste 44 Nordeste 0 -- -- 88
2019-04-21 06:00:00 14 16 Nordeste 37 Nordeste 0 -- -- 89
2019-04-21 05:00:00 14.4 17 Nordeste 35 Este 0 -- -- 85
2019-04-21 04:00:00 14.2 16 Nordeste 35 Este 0 -- -- 87
2019-04-21 03:00:00 14.2 19 Nordeste 36 Nordeste 0 -- -- 86
2019-04-21 02:00:00 14 17 Nordeste 41 Nordeste 0 -- -- 88
2019-04-21 01:00:00 13.8 15 Nordeste 39 Nordeste 0 -- -- 89
2019-04-21 00:00:00 14.2 19 Nordeste 39 Nordeste 0 -- -- 82
2019-04-20 23:00:00 14.8 22 Nordeste 42 Nordeste 0 -- -- 75
2019-04-20 22:00:00 15.1 23 Nordeste 50 Este 0 -- -- 72
2019-04-20 21:00:00 15.5 23 Nordeste 49 Este 0 -- -- 70
2019-04-20 20:00:00 15.8 25 Nordeste 48 Nordeste 0 -- -- 69
2019-04-20 19:00:00 15.9 23 Nordeste 50 Este 0 -- -- 67
2019-04-20 18:00:00 16.1 24 Nordeste 51 Este 0 -- -- 67
2019-04-20 17:00:00 16.5 25 Nordeste 63 Nordeste 0 -- -- 66
2019-04-20 16:00:00 16.9 35 Nordeste 66 Nordeste 0 -- -- 64
2019-04-20 15:00:00 17.6 39 Nordeste 69 Nordeste 0 -- -- 63
2019-04-20 14:00:00 17 38 Nordeste 70 Nordeste 0 -- -- 65
2019-04-20 13:00:00 18.6 38 Nordeste 63 Este 0 -- -- 62
2019-04-20 12:00:00 17 26 Nordeste 53 Nordeste 0 -- -- 66
2019-04-20 11:00:00 17.2 24 Nordeste 48 Nordeste 0 -- -- 65
2019-04-20 10:00:00 15.5 21 Nordeste 50 Este 0 -- -- 71
2019-04-20 09:00:00 15.3 23 Nordeste 48 Nordeste 0 -- -- 70
2019-04-20 08:00:00 15.1 21 Nordeste 52 Este 0 -- -- 70
2019-04-20 07:00:00 14.9 18 Este 50 Nordeste 0 -- -- 71
2019-04-20 06:00:00 15 21 Nordeste 49 Este 0 -- -- 71
2019-04-20 05:00:00 15 29 Nordeste 56 Este 0 -- -- 69
2019-04-20 04:00:00 15.1 26 Nordeste 50 Nordeste 0 -- -- 70
2019-04-20 03:00:00 15 27 Nordeste 56 Nordeste 0 -- -- 71
2019-04-20 02:00:00 15.1 27 Nordeste 53 Nordeste 0 -- -- 71
2019-04-20 01:00:00 15.1 25 Nordeste 46 Nordeste 0 -- -- 73
2019-04-20 00:00:00 15 22 Nordeste 46 Este 0 -- -- 79
2019-04-19 23:00:00 15 23 Nordeste 43 Nordeste 0 -- -- 80
2019-04-19 22:00:00 15 24 Nordeste 46 Nordeste 0 -- -- 83
2019-04-19 21:00:00 15 21 Nordeste 45 Este 0 -- -- 84
2019-04-19 20:00:00 15.2 22 Nordeste 44 Nordeste 0 -- -- 86
2019-04-19 19:00:00 15.3 20 Nordeste 50 Nordeste 0 -- -- 87
2019-04-19 18:00:00 15.4 21 Este 49 Nordeste 0 -- -- 87
2019-04-19 17:00:00 15.3 24 Nordeste 47 Este 0 -- -- 87
2019-04-19 16:00:00 15.5 28 Nordeste 55 Nordeste 0 -- -- 86
2019-04-19 15:00:00 15.8 22 Este 55 Nordeste 0 -- -- 85
2019-04-19 14:00:00 15.6 25 Este 51 Este 0 -- -- 86
2019-04-19 13:00:00 15.6 27 Nordeste 57 Este 0 -- -- 86
2019-04-19 12:00:00 15.3 21 Este 48 Este 0 -- -- 86
2019-04-19 11:00:00 14.8 20 Este 48 Nordeste 0 -- -- 90
2019-04-19 10:00:00 14.1 21 Nordeste 42 Nordeste 0.2 -- -- 95
2019-04-19 09:00:00 14.1 17 Nordeste 36 Nordeste 0 -- -- 96
2019-04-19 08:00:00 13.9 14 Nordeste 33 Este 0.2 -- -- 96
2019-04-19 07:00:00 13.9 14 Nordeste 28 Nordeste 0.2 -- -- 96
2019-04-19 06:00:00 14.1 10 Este 24 Este 0 -- -- 95
2019-04-19 05:00:00 14.1 10 Este 27 Este 0 -- -- 94
2019-04-19 04:00:00 14.4 13 Este 30 Nordeste 0 -- -- 92
2019-04-19 03:00:00 14.8 12 Este 28 Nordeste 0 -- -- 87
2019-04-19 02:00:00 14.9 12 Este 35 Este 0 -- -- 86
2019-04-19 01:00:00 15 17 Nordeste 34 Nordeste 0 -- -- 85
2019-04-19 00:00:00 15 10 Este 27 Este 0 -- -- 84
2019-04-18 23:00:00 15 12 Este 30 Este 0 -- -- 82
2019-04-18 22:00:00 14.9 12 Este 32 Este 0 -- -- 83
2019-04-18 21:00:00 14.9 15 Este 36 Este 0 -- -- 83
2019-04-18 20:00:00 15.3 12 Este 51 Este 0 -- -- 80
2019-04-18 19:00:00 15.9 23 Este 51 Este 0 -- -- 77
2019-04-18 18:00:00 16.2 29 Este 55 Nordeste 0 -- -- 75
2019-04-18 17:00:00 17.1 23 Este 50 Este 0 -- -- 75
2019-04-18 16:00:00 17.2 24 Este 51 Este 0 -- -- 75
2019-04-18 15:00:00 17.5 29 Nordeste 53 Nordeste 0 -- -- 73
2019-04-18 14:00:00 17.8 24 Este 53 Este 0 -- -- 73
2019-04-18 13:00:00 18.3 26 Este 50 Nordeste 0 -- -- 72
2019-04-18 12:00:00 17.5 20 Este 43 Este 0 -- -- 75
2019-04-18 11:00:00 17.4 19 Este 44 Nordeste 0 -- -- 77
2019-04-18 10:00:00 15.6 14 Este 43 Este 0 -- -- 85
2019-04-18 09:00:00 14.8 9 Este 32 Este 0 -- -- 88
2019-04-18 08:00:00 14.3 14 Nordeste 32 Este 0 -- -- 90
2019-04-18 07:00:00 13.6 21 Este 44 Este 0 -- -- 91
2019-04-18 06:00:00 13.5 12 Este 27 Nordeste 0 -- -- 91
2019-04-18 05:00:00 13.2 12 Nordeste 28 Nordeste 0 -- -- 90
2019-04-18 04:00:00 13.2 9 Nordeste 24 Este 0 -- -- 91
2019-04-18 03:00:00 13.6 9 Este 26 Este 0 -- -- 92
2019-04-18 02:00:00 13.5 10 Este 22 Este 0 -- -- 92
2019-04-18 01:00:00 13.2 10 Nordeste 18 Nordeste 0 -- -- 92
2019-04-18 00:00:00 13.1 8 Nordeste 15 Este 0 -- -- 92
2019-04-17 23:00:00 12.9 6 Nordeste 16 Este 0 -- -- 89
2019-04-17 22:00:00 13.1 6 Este 14 Este 0 -- -- 88
2019-04-17 21:00:00 13.6 7 Nordeste 22 Nordeste 0 -- -- 85
2019-04-17 20:00:00 14.6 10 Este 29 Este 0 -- -- 81
2019-04-17 19:00:00 16.3 15 Este 31 Este 0 -- -- 73
2019-04-17 18:00:00 16.9 17 Este 33 Este 0 -- -- 70
2019-04-17 17:00:00 17.4 17 Este 35 Este 0 -- -- 69
2019-04-17 16:00:00 17.8 16 Este 31 Este 0 -- -- 66
2019-04-17 15:00:00 18.2 10 Este 28 Este 0 -- -- 65
2019-04-17 14:00:00 18.4 12 Este 27 Este 0 -- -- 66
2019-04-17 13:00:00 18.1 12 Este 25 Este 0 -- -- 65
2019-04-17 12:00:00 17.8 12 Este 27 Este 0 -- -- 68
2019-04-17 11:00:00 17.1 9 Nordeste 22 Este 0 -- -- 73
2019-04-17 10:00:00 15.9 9 Este 21 Nordeste 0 -- -- 77
2019-04-17 09:00:00 13.5 6 Nordeste 14 Nordeste 0 -- -- 95
2019-04-17 08:00:00 8.6 0 Calma 3 Sudeste 0 -- -- 96
2019-04-17 07:00:00 8.3 0 Calma 4 Sur 0 -- -- 95
2019-04-17 06:00:00 8.1 3 Sur 4 Sur 0 -- -- 94
2019-04-17 05:00:00 8.6 0 Calma 0 Calma 0 -- -- 94
2019-04-17 04:00:00 9.2 0 Calma 4 Sudeste 0 -- -- 94
2019-04-17 03:00:00 9.4 0 Calma 2 Sudeste 0 -- -- 92
2019-04-17 02:00:00 10.1 0 Calma 4 Este 0 -- -- 90
2019-04-17 01:00:00 10.7 2 Este 8 Este 0 -- -- 88
2019-04-17 00:00:00 11.3 2 Este 8 Este 0 -- -- 86
2019-04-16 23:00:00 12.3 5 Este 9 Este 0 -- -- 87
2019-04-16 22:00:00 12.9 4 Este 9 Este 0 -- -- 85
2019-04-16 21:00:00 14.1 2 Nordeste 13 Nordeste 0 -- -- 77
2019-04-16 20:00:00 16.2 5 Nordeste 16 Este 0 -- -- 68
2019-04-16 19:00:00 17.6 10 Este 18 Este 0 -- -- 55
2019-04-16 18:00:00 18.8 9 Este 22 Este 0 -- -- 50
2019-04-16 17:00:00 18.3 8 Este 22 Este 0 -- -- 57
2019-04-16 16:00:00 19.3 11 Este 22 Sudeste 0 -- -- 51
2019-04-16 15:00:00 19.8 11 Este 27 Este 0 -- -- 50
2019-04-16 14:00:00 20.3 11 Este 27 Sudoeste 0 -- -- 50
2019-04-16 13:00:00 20.5 5 Nordeste 13 Norte 0 -- -- 48
2019-04-16 12:00:00 18.9 3 Noroeste 9 Este 0 -- -- 55
2019-04-16 11:00:00 17.8 4 Nordeste 12 Este 0 -- -- 54
2019-04-16 10:00:00 15.3 6 Este 10 Este 0 -- -- 78
2019-04-16 09:00:00 12.6 0 Calma 20 Este 0 -- -- 92
2019-04-16 08:00:00 12.2 12 Este 25 Este 0.2 -- -- 93
2019-04-16 07:00:00 11.5 0 Calma 8 Nordeste 0 -- -- 92
2019-04-16 06:00:00 11 4 Sudeste 10 Este 0 -- -- 93
2019-04-16 05:00:00 10.1 3 Sur 5 Sur 0 -- -- 93
2019-04-16 04:00:00 9.8 3 Sur 6 Sudoeste 0 -- -- 92
2019-04-16 03:00:00 9.5 2 Sur 4 Sur 0 -- -- 93
2019-04-16 02:00:00 9.4 0 Calma 4 Este 0 -- -- 89
2019-04-16 01:00:00 10.1 0 Calma 4 Este 0 -- -- 88
2019-04-16 00:00:00 10.8 2 Este 6 Este 0 -- -- 85
2019-04-15 23:00:00 12.3 0 Calma 13 Este 0 -- -- 78
2019-04-15 22:00:00 12.6 6 Este 13 Este 0 -- -- 76
2019-04-15 21:00:00 13.3 7 Este 19 Este 0 -- -- 70
2019-04-15 20:00:00 14.4 9 Este 21 Este 0 -- -- 63
2019-04-15 19:00:00 15.3 10 Este 24 Este 0 -- -- 52
2019-04-15 18:00:00 16.7 13 Este 30 Este 0 -- -- 46
2019-04-15 17:00:00 17.1 15 Este 28 Este 0 -- -- 40
2019-04-15 16:00:00 17.7 13 Este 28 Este 0 -- -- 44
2019-04-15 15:00:00 17.6 13 Este 28 Este 0 -- -- 47
2019-04-15 14:00:00 18.6 13 Este 32 Este 0 -- -- 45
2019-04-15 13:00:00 18 13 Este 30 Este 0 -- -- 46
2019-04-15 12:00:00 18 12 Este 25 Este 0 -- -- 52
2019-04-15 11:00:00 17.6 10 Este 24 Este 0 -- -- 59
2019-04-15 10:00:00 16.3 8 Este 19 Este 0 -- -- 61
2019-04-15 09:00:00 13.2 0 Calma 6 Nordeste 0 -- -- 90
2019-04-15 08:00:00 8.9 3 Este 6 Este 0 -- -- 96
2019-04-15 07:00:00 8.5 3 Este 5 Este 0 -- -- 95
2019-04-15 06:00:00 9.4 4 Este 6 Sudeste 0 -- -- 95
2019-04-15 05:00:00 10.3 3 Este 7 Este 0 -- -- 94
2019-04-15 04:00:00 10.9 4 Este 6 Este 0 -- -- 95
2019-04-15 03:00:00 11.3 4 Este 7 Este 0 -- -- 94
2019-04-15 02:00:00 11.8 4 Este 11 Este 0 -- -- 94
2019-04-15 01:00:00 11.9 5 Este 12 Este 0 -- -- 93
2019-04-15 00:00:00 12 3 Este 8 Este 0 -- -- 92
2019-04-14 23:00:00 12.6 4 Este 9 Este 0 -- -- 89
2019-04-14 22:00:00 13.4 4 Este 10 Este 0 -- -- 86
2019-04-14 21:00:00 14.3 4 Este 16 Sudeste 0 -- -- 81
2019-04-14 20:00:00 15.9 8 Este 18 Este 0 -- -- 77
2019-04-14 19:00:00 18.2 12 Este 20 Este 0 -- -- 71
2019-04-14 18:00:00 19.4 12 Este 21 Este 0 -- -- 65
2019-04-14 17:00:00 21.4 9 Sudeste 20 Este 0 -- -- 59
2019-04-14 16:00:00 20.8 10 Este 21 Sudeste 0 -- -- 57
2019-04-14 15:00:00 21 11 Este 39 Nordeste 0 -- -- 57
2019-04-14 14:00:00 23.3 14 Oeste 28 Sudoeste 0 -- -- 31
2019-04-14 13:00:00 22.5 12 Oeste 29 Sudoeste 0 -- -- 40
2019-04-14 12:00:00 19.8 18 Sudoeste 32 Sudoeste 0 -- -- 65
2019-04-14 11:00:00 17.5 23 Sudoeste 39 Sudoeste 0 -- -- 77
2019-04-14 10:00:00 15 26 Sudoeste 39 Sudoeste 0 -- -- 89
2019-04-14 09:00:00 14.3 18 Sudoeste 30 Sudoeste 0 -- -- 92
2019-04-14 08:00:00 12.3 16 Sudoeste 26 Sudoeste 0 -- -- 97
2019-04-14 07:00:00 11.5 13 Sudoeste 22 Sudoeste 0 -- -- 97
2019-04-14 06:00:00 11.8 15 Sudoeste 26 Sudoeste 0 -- -- 96
2019-04-14 05:00:00 12.3 17 Sudoeste 28 Sudoeste 0 -- -- 95
2019-04-14 04:00:00 12.5 18 Sudoeste 30 Sudoeste 0 -- -- 95
2019-04-14 03:00:00 12.8 18 Sudoeste 35 Sudoeste 0 -- -- 93
2019-04-14 02:00:00 12.5 17 Sudoeste 26 Sudoeste 0 -- -- 95
2019-04-14 01:00:00 12.6 15 Sudoeste 23 Sudoeste 0 -- -- 95
2019-04-14 00:00:00 12.6 12 Sudoeste 18 Sudoeste 0 -- -- 93
2019-04-13 23:00:00 12.7 10 Sudoeste 18 Sudoeste 0 -- -- 89
2019-04-13 22:00:00 13.2 10 Sudoeste 17 Sudoeste 0 -- -- 80
2019-04-13 21:00:00 14.5 8 Sudoeste 18 Sudoeste 0 -- -- 71
2019-04-13 20:00:00 16.6 5 Sudeste 15 Este 0 -- -- 66
2019-04-13 19:00:00 18.4 12 Este 24 Este 0 -- -- 59
2019-04-13 18:00:00 19.9 4 Norte 22 Nordeste 0 -- -- 49
2019-04-13 17:00:00 20.6 7 Oeste 28 Sudoeste 0 -- -- 49
2019-04-13 16:00:00 19.8 13 Sudoeste 34 Sudoeste 0 -- -- 53
2019-04-13 15:00:00 18.6 16 Sudoeste 34 Sudoeste 0 -- -- 53
2019-04-13 14:00:00 19.3 19 Sudoeste 31 Sudoeste 0 -- -- 51
2019-04-13 13:00:00 19.2 15 Sudoeste 26 Sudoeste 0 -- -- 51
2019-04-13 12:00:00 18.3 11 Sudoeste 19 Sudoeste 0 -- -- 40
2019-04-13 11:00:00 16.7 10 Sudoeste 18 Sudoeste 0 -- -- 60
2019-04-13 10:00:00 14.9 10 Sudoeste 16 Sudoeste 0 -- -- 76
2019-04-13 09:00:00 11.9 5 Oeste 14 Sudoeste 0 -- -- 92
2019-04-13 08:00:00 6.1 0 Calma 2 Norte 0 -- -- 96
2019-04-13 07:00:00 5.6 0 Calma 3 Norte 0 -- -- 94
2019-04-13 06:00:00 6.4 0 Calma 7 Noroeste 0 -- -- 93
2019-04-13 05:00:00 6.8 2 Noroeste 6 Oeste 0 -- -- 94
2019-04-13 04:00:00 6.5 0 Calma 4 Noroeste 0 -- -- 94
2019-04-13 03:00:00 7.4 2 Noroeste 4 Oeste 0 -- -- 94
2019-04-13 02:00:00 7.2 0 Calma 6 Sudeste 0 -- -- 92
2019-04-13 01:00:00 7.4 3 Sudeste 5 Sudeste 0 -- -- 91
2019-04-13 00:00:00 8.5 0 Calma 7 Este 0 -- -- 87
2019-04-12 23:00:00 9.7 5 Este 8 Sudeste 0 -- -- 87
2019-04-12 22:00:00 11 6 Sudeste 10 Sudeste 0 -- -- 82
2019-04-12 21:00:00 11.7 5 Sudeste 9 Sudeste 0 -- -- 79
2019-04-12 20:00:00 13.3 4 Sudeste 14 Este 0 -- -- 73
2019-04-12 19:00:00 14.8 7 Este 15 Este 0 -- -- 68
2019-04-12 18:00:00 16 5 Sudeste 15 Este 0.2 -- -- 69
2019-04-12 17:00:00 15.2 6 Este 13 Este 0 -- -- 75
2019-04-12 16:00:00 15.4 7 Este 15 Sudeste 0.6 -- -- 71
2019-04-12 15:00:00 14.4 4 Este 20 Sudeste 2.4 -- -- 76
2019-04-12 14:00:00 17.1 7 Sudeste 23 Este 0 -- -- 58
2019-04-12 13:00:00 17.4 8 Este 15 Sudeste 0 -- -- 55
2019-04-12 12:00:00 17.5 5 Este 22 Nordeste 0 -- -- 52
2019-04-12 11:00:00 17 14 Nordeste 28 Norte 0 -- -- 54
2019-04-12 10:00:00 15.4 8 Nordeste 23 Norte 0 -- -- 62
2019-04-12 09:00:00 13.2 3 Sur 10 Nordeste 0 -- -- 72
2019-04-12 08:00:00 10.9 0 Calma 6 Norte 0 -- -- 87
2019-04-12 07:00:00 10.5 2 Nordeste 4 Sudoeste 0 -- -- 88
2019-04-12 06:00:00 10.5 0 Calma 2 Noroeste 0 -- -- 88
2019-04-12 05:00:00 10.5 0 Calma 3 Sudoeste 0 -- -- 87
2019-04-12 04:00:00 10.7 0 Calma 8 Sudoeste 0 -- -- 84
2019-04-12 03:00:00 11 6 Sudoeste 12 Sudoeste 0 -- -- 83
2019-04-12 02:00:00 10.9 7 Sudoeste 13 Sudoeste 0 -- -- 79
2019-04-12 01:00:00 11.1 6 Oeste 16 Sur 0 -- -- 78
2019-04-12 00:00:00 12.2 9 Sudoeste 16 Sudoeste 0 -- -- 76
2019-04-11 23:00:00 11.2 2 Este 6 Sudeste 0 -- -- 83
2019-04-11 22:00:00 12.2 4 Sudeste 11 Sur 0 -- -- 79
2019-04-11 21:00:00 12.8 6 Sudeste 11 Este 0 -- -- 78
2019-04-11 20:00:00 14.4 7 Este 15 Este 0 -- -- 70
2019-04-11 19:00:00 17.5 6 Este 18 Este 0 -- -- 59
2019-04-11 18:00:00 18.1 8 Nordeste 23 Nordeste 0 -- -- 60
2019-04-11 17:00:00 16.8 10 Nordeste 27 Nordeste 0 -- -- 65
2019-04-11 16:00:00 19 12 Nordeste 22 Nordeste 0 -- -- 63
2019-04-11 15:00:00 17.7 12 Sudoeste 30 Sudoeste 0 -- -- 47
2019-04-11 14:00:00 16.8 5 Sur 17 Sur 0.6 -- -- 65
2019-04-11 13:00:00 17.9 11 Sur 25 Sur 0 -- -- 53
2019-04-11 12:00:00 17.3 5 Sudoeste 12 Sudoeste 0 -- -- 52
2019-04-11 11:00:00 15.3 6 Sudoeste 9 Oeste 0 -- -- 64
2019-04-11 10:00:00 13.7 4 Oeste 7 Oeste 0 -- -- 67
2019-04-11 09:00:00 11.4 4 Sudoeste 5 Sudoeste 0 -- -- 79
2019-04-11 08:00:00 9.7 0 Calma 3 Sudoeste 0 -- -- 84
2019-04-11 07:00:00 9.9 0 Calma 7 Sudoeste 0 -- -- 80
2019-04-11 06:00:00 9.2 0 Calma 4 Sudoeste 0 -- -- 86
2019-04-11 05:00:00 9.2 3 Noroeste 6 Sudoeste 0 -- -- 87
2019-04-11 04:00:00 8.7 6 Sudoeste 8 Sudoeste 0 -- -- 87
2019-04-11 03:00:00 9.3 2 Norte 8 Sudoeste 0 -- -- 86
2019-04-11 02:00:00 9.6 3 Sudoeste 7 Oeste 0 -- -- 89
2019-04-11 01:00:00 10 3 Oeste 5 Oeste 0 -- -- 91
2019-04-11 00:00:00 9.8 2 Norte 3 Norte 0 -- -- 90
2019-04-10 23:00:00 10.4 0 Calma 9 Sudoeste 0 -- -- 87
2019-04-10 22:00:00 10.7 4 Oeste 9 Oeste 0 -- -- 86
2019-04-10 21:00:00 12 4 Oeste 17 Sudoeste 0 -- -- 77
2019-04-10 20:00:00 12.9 3 Sudoeste 15 Sur 0 -- -- 73
2019-04-10 19:00:00 13.1 10 Sudoeste 21 Sudoeste 0 -- -- 67
2019-04-10 18:00:00 13.7 7 Sur 22 Sudeste 1 -- -- 73
2019-04-10 17:00:00 15.2 10 Sudeste 23 Sudeste 0 -- -- 60
2019-04-10 16:00:00 17.9 9 Noroeste 20 Norte 0 -- -- 47
2019-04-10 15:00:00 17.1 9 Norte 33 Noroeste 0 -- -- 56
2019-04-10 14:00:00 18.1 13 Oeste 42 Sudoeste 0 -- -- 53
2019-04-10 13:00:00 16.3 17 Oeste 32 Sudoeste 0 -- -- 55
2019-04-10 12:00:00 15.7 15 Oeste 29 Oeste 0 -- -- 63
2019-04-10 11:00:00 13.5 13 Oeste 24 Oeste 0 -- -- 79
2019-04-10 10:00:00 10.6 10 Sudoeste 16 Sudoeste 0.8 -- -- 88
2019-04-10 09:00:00 9.9 11 Sudoeste 18 Oeste 1.6 -- -- 89
2019-04-10 08:00:00 10.7 10 Oeste 20 Oeste 0.2 -- -- 84
2019-04-10 07:00:00 11.1 5 Oeste 15 Sudoeste 0 -- -- 84
2019-04-10 06:00:00 11.7 11 Sudoeste 23 Sudoeste 0 -- -- 82
2019-04-10 05:00:00 12.2 16 Sudoeste 27 Sudoeste 0 -- -- 78
2019-04-10 04:00:00 12.5 8 Sudoeste 29 Sudoeste 0 -- -- 76
2019-04-10 03:00:00 12.6 16 Sudoeste 28 Sudoeste 0 -- -- 76
2019-04-10 02:00:00 13 19 Sudoeste 32 Sur 0 -- -- 71
2019-04-10 01:00:00 12.9 17 Sudoeste 27 Sudoeste 0 -- -- 70
2019-04-10 00:00:00 12.8 14 Sudoeste 30 Sudoeste 0 -- -- 73
2019-04-09 23:00:00 13 17 Sudoeste 29 Sudoeste 0 -- -- 79
2019-04-09 22:00:00 12.9 14 Sudoeste 23 Sudoeste 0 -- -- 71
2019-04-09 21:00:00 13 4 Sudoeste 18 Sudoeste 0 -- -- 55
2019-04-09 20:00:00 15.9 10 Sudoeste 31 Sudoeste 0 -- -- 48
2019-04-09 19:00:00 17.3 21 Sudoeste 36 Sudoeste 0 -- -- 46
2019-04-09 18:00:00 18 20 Oeste 34 Sudoeste 0 -- -- 48
2019-04-09 17:00:00 18.9 18 Oeste 36 Sudoeste 0 -- -- 42
2019-04-09 16:00:00 18.9 22 Oeste 33 Oeste 0 -- -- 48
2019-04-09 15:00:00 17.9 15 Noroeste 26 Noroeste 0 -- -- 54
2019-04-09 14:00:00 18.4 14 Noroeste 31 Noroeste 0 -- -- 54
2019-04-09 13:00:00 18.5 21 Oeste 36 Oeste 0 -- -- 47
2019-04-09 12:00:00 19.1 14 Oeste 33 Oeste 0 -- -- 51
2019-04-09 11:00:00 16.9 12 Noroeste 33 Sudoeste 0 -- -- 56
2019-04-09 10:00:00 16.2 23 Sudoeste 41 Sudoeste 0 -- -- 71
2019-04-09 09:00:00 14.7 17 Sudoeste 36 Sudoeste 0 -- -- 85
2019-04-09 08:00:00 13.6 21 Sudoeste 36 Sur 0 -- -- 90
2019-04-09 07:00:00 13.6 16 Sudoeste 25 Sudoeste 0 -- -- 95
2019-04-09 06:00:00 13.5 13 Sur 21 Sur 0 -- -- 95
2019-04-09 05:00:00 13.4 9 Sudoeste 18 Sudoeste 0 -- -- 95
2019-04-09 04:00:00 13.4 8 Sudoeste 20 Sudoeste 0 -- -- 94
2019-04-09 03:00:00 13.8 11 Sudoeste 22 Sur 0 -- -- 91
2019-04-09 02:00:00 13.5 12 Sudoeste 20 Sudoeste 0 -- -- 93
2019-04-09 01:00:00 13.6 13 Sudoeste 23 Sudoeste 0 -- -- 92
2019-04-09 00:00:00 13.8 14 Sudoeste 24 Sudoeste 0 -- -- 89
2019-04-08 23:00:00 13.6 13 Sudoeste 21 Sudoeste 0 -- -- 85
2019-04-08 22:00:00 13.8 14 Sudoeste 24 Sudoeste 0 -- -- 82
2019-04-08 21:00:00 14.6 12 Sudoeste 25 Sudoeste 0 -- -- 70
2019-04-08 20:00:00 16.5 16 Sudoeste 31 Sudoeste 0 -- -- 62
2019-04-08 19:00:00 18.3 21 Sudoeste 30 Sudoeste 0 -- -- 53
2019-04-08 18:00:00 19.1 22 Sudoeste 34 Sudoeste 0 -- -- 55
2019-04-08 17:00:00 19 22 Sudoeste 33 Sudoeste 0 -- -- 57
2019-04-08 16:00:00 18.4 20 Sudoeste 35 Sudoeste 0 -- -- 55
2019-04-08 15:00:00 17.6 18 Sudoeste 33 Sudoeste 0 -- -- 59
2019-04-08 14:00:00 17.2 21 Sudoeste 40 Sudoeste 0 -- -- 58
2019-04-08 13:00:00 18 23 Sudoeste 37 Oeste 0 -- -- 56
2019-04-08 12:00:00 17.9 19 Sudoeste 34 Sudoeste 0 -- -- 52
2019-04-08 11:00:00 16.6 15 Sudoeste 24 Sudoeste 0 -- -- 66
2019-04-08 10:00:00 15.5 11 Sudoeste 19 Sur 0 -- -- 79
2019-04-08 09:00:00 9.7 4 Sudoeste 10 Sudoeste 0 -- -- 96
2019-04-08 08:00:00 5.7 2 Este 5 Este 0 -- -- 95
2019-04-08 07:00:00 4.2 0 Calma 2 Este 0 -- -- 93
2019-04-08 06:00:00 4.3 0 Calma 2 Nordeste 0 -- -- 92
2019-04-08 05:00:00 4.9 0 Calma 4 Norte 0 -- -- 90
2019-04-08 04:00:00 5.1 0 Calma 3 Nordeste 0 -- -- 88
2019-04-08 03:00:00 5.8 2 Nordeste 4 Sudoeste 0 -- -- 86
2019-04-08 02:00:00 6.5 0 Calma 5 Sudoeste 0 -- -- 83
2019-04-08 01:00:00 6.6 0 Calma 5 Sudoeste 0 -- -- 83
2019-04-08 00:00:00 7.4 3 Sur 7 Sudoeste 0 -- -- 78
2019-04-07 23:00:00 8.9 5 Oeste 9 Oeste 0 -- -- 72
2019-04-07 22:00:00 9.7 7 Oeste 10 Oeste 0 -- -- 71
2019-04-07 21:00:00 11.5 4 Oeste 18 Noroeste 0 -- -- 65
2019-04-07 20:00:00 13.6 10 Noroeste 23 Noroeste 0 -- -- 55
2019-04-07 19:00:00 15.1 14 Noroeste 30 Noroeste 0 -- -- 50
2019-04-07 18:00:00 15.5 16 Noroeste 32 Noroeste 0 -- -- 47
2019-04-07 17:00:00 15.9 16 Noroeste 38 Oeste 0 -- -- 48
2019-04-07 16:00:00 16.3 22 Oeste 35 Oeste 0 -- -- 43
2019-04-07 15:00:00 15.6 18 Oeste 33 Oeste 0 -- -- 46
2019-04-07 14:00:00 14.9 20 Noroeste 35 Noroeste 0 -- -- 46
2019-04-07 13:00:00 15 18 Oeste 37 Oeste 0 -- -- 45
2019-04-07 12:00:00 15.3 18 Oeste 35 Oeste 0 -- -- 49
2019-04-07 11:00:00 14.1 14 Oeste 24 Noroeste 0 -- -- 58
2019-04-07 10:00:00 11.1 4 Oeste 14 Oeste 0 -- -- 78
2019-04-07 09:00:00 10.3 6 Oeste 17 Oeste 0 -- -- 78
2019-04-07 08:00:00 10.4 7 Oeste 18 Sudoeste 0 -- -- 81
2019-04-07 07:00:00 9.7 10 Sudoeste 16 Sudoeste 0 -- -- 80
2019-04-07 06:00:00 10.1 10 Sudoeste 16 Sudoeste 0 -- -- 76
2019-04-07 05:00:00 10.6 11 Sudoeste 19 Sudoeste 0 -- -- 75
2019-04-07 04:00:00 10.9 11 Sudoeste 18 Sudoeste 0 -- -- 76
2019-04-07 03:00:00 9.9 6 Sudoeste 10 Sudoeste 0 -- -- 80
2019-04-07 02:00:00 10.6 6 Sudoeste 22 Sudoeste 0 -- -- 76
2019-04-07 01:00:00 10.8 10 Sudoeste 18 Sudoeste 0 -- -- 72
2019-04-07 00:00:00 11.2 10 Sudoeste 19 Sudoeste 0 -- -- 73
2019-04-06 23:00:00 11 5 Sur 15 Oeste 0 -- -- 70
2019-04-06 22:00:00 12 13 Sudoeste 24 Sudoeste 0 -- -- 67
2019-04-06 21:00:00 12.6 15 Sudoeste 26 Sudoeste 0 -- -- 64
2019-04-06 20:00:00 13.4 17 Sudoeste 32 Sudoeste 0 -- -- 61
2019-04-06 19:00:00 13.6 24 Sudoeste 45 Sudoeste 0 -- -- 59
2019-04-06 18:00:00 14.3 26 Oeste 45 Sudoeste 0 -- -- 52
2019-04-06 17:00:00 14.5 27 Sudoeste 51 Oeste 0 -- -- 50
2019-04-06 16:00:00 15.3 28 Sudoeste 44 Sudoeste 0 -- -- 49
2019-04-06 15:00:00 14.9 26 Sudoeste 43 Sudoeste 0 -- -- 51
2019-04-06 14:00:00 15.3 22 Sudoeste 38 Sudoeste 0 -- -- 55
2019-04-06 13:00:00 14.9 23 Oeste 39 Sudoeste 0 -- -- 57
2019-04-06 12:00:00 13.9 19 Oeste 40 Sudoeste 0 -- -- 59
2019-04-06 11:00:00 13.8 23 Sudoeste 36 Sudoeste 0 -- -- 61
2019-04-06 10:00:00 12 17 Oeste 30 Oeste 0 -- -- 69
2019-04-06 09:00:00 11 19 Sudoeste 37 Sudoeste 0 -- -- 72
2019-04-06 08:00:00 9.7 15 Sudoeste 25 Oeste 0 -- -- 78
2019-04-06 07:00:00 8.3 9 Oeste 26 Sudoeste 0 -- -- 87
2019-04-06 06:00:00 9.4 18 Sudoeste 37 Sudoeste 0 -- -- 85
2019-04-06 05:00:00 9.7 16 Sudoeste 24 Sudoeste 0 -- -- 87
2019-04-06 04:00:00 10.6 6 Sudoeste 29 Sur 2.8 -- -- 90
2019-04-06 03:00:00 11.7 14 Sudoeste 32 Sur 0.4 -- -- 87
2019-04-06 02:00:00 11.4 10 Sudoeste 19 Sudoeste 0 -- -- 90
2019-04-06 01:00:00 11.8 10 Sudoeste 21 Sudoeste 0 -- -- 88
2019-04-06 00:00:00 12.9 10 Sur 23 Sudeste 0 -- -- 84
2019-04-05 23:00:00 13.4 8 Sur 26 Sur 0.2 -- -- 83
2019-04-05 22:00:00 13.9 12 Sur 28 Sur 0 -- -- 81
2019-04-05 21:00:00 13.9 8 Sur 26 Sur 0 -- -- 77
2019-04-05 20:00:00 14 14 Sur 31 Sur 0 -- -- 76
2019-04-05 19:00:00 14.8 15 Sur 31 Sur 0.2 -- -- 71
2019-04-05 18:00:00 15 13 Sur 39 Sudeste 0 -- -- 73
2019-04-05 17:00:00 15.3 11 Sudeste 31 Sudeste 0 -- -- 67
2019-04-05 16:00:00 17.1 15 Sur 39 Sur 0 -- -- 57
2019-04-05 15:00:00 17.3 15 Sur 27 Sudeste 0 -- -- 51
2019-04-05 14:00:00 17.3 15 Sur 31 Sudoeste 0 -- -- 54
2019-04-05 13:00:00 17.4 18 Sudoeste 32 Sudoeste 0 -- -- 42
2019-04-05 12:00:00 16.3 14 Sur 27 Sur 0 -- -- 43
2019-04-05 11:00:00 14.9 12 Sudoeste 24 Sudoeste 0 -- -- 50
2019-04-05 10:00:00 13.1 9 Sudoeste 22 Sudoeste 0 -- -- 59
2019-04-05 09:00:00 8.4 0 Calma 6 Noroeste 0 -- -- 91
2019-04-05 08:00:00 3.1 0 Calma 4 Este 0 -- -- 94
2019-04-05 07:00:00 3.1 2 Este 5 Este 0 -- -- 93
2019-04-05 06:00:00 3 0 Calma 2 Sudoeste 0 -- -- 91
2019-04-05 05:00:00 3.4 0 Calma 4 Sudoeste 0 -- -- 89
2019-04-05 04:00:00 4.7 0 Calma 5 Noroeste 0 -- -- 88
2019-04-05 03:00:00 5 3 Sudoeste 4 Oeste 0 -- -- 88
2019-04-05 02:00:00 6.6 2 Norte 9 Sudeste 0 -- -- 82
2019-04-05 01:00:00 7.1 5 Sudeste 9 Este 0 -- -- 81
2019-04-05 00:00:00 6.9 3 Sudeste 9 Sudeste 0 -- -- 78
2019-04-04 23:00:00 7.7 3 Este 7 Sudeste 0 -- -- 75
2019-04-04 22:00:00 8.6 4 Sudeste 8 Este 0 -- -- 71
2019-04-04 21:00:00 10 5 Sudeste 15 Este 0 -- -- 65
2019-04-04 20:00:00 12.4 7 Sudeste 21 Sudeste 0 -- -- 58
2019-04-04 19:00:00 14.1 11 Este 26 Este 0 -- -- 52
2019-04-04 18:00:00 15.2 12 Sudeste 27 Este 0 -- -- 51
2019-04-04 17:00:00 16.3 11 Este 24 Este 0 -- -- 47
2019-04-04 16:00:00 16.6 10 Noroeste 29 Oeste 0 -- -- 30
2019-04-04 15:00:00 15.7 12 Oeste 28 Oeste 0 -- -- 31
2019-04-04 14:00:00 15.3 9 Noroeste 29 Noroeste 0 -- -- 38
2019-04-04 13:00:00 14.7 7 Oeste 21 Oeste 0 -- -- 48
2019-04-04 12:00:00 13.5 11 Noroeste 23 Noroeste 0 -- -- 54
2019-04-04 11:00:00 11.9 6 Oeste 14 Oeste 0 -- -- 67
2019-04-04 10:00:00 10.9 5 Oeste 9 Sudoeste 0 -- -- 76
2019-04-04 09:00:00 10.3 5 Sudoeste 8 Sudoeste 0 -- -- 81
2019-04-04 08:00:00 9.6 0 Calma 8 Norte 0 -- -- 80
2019-04-04 07:00:00 9.9 4 Norte 12 Nordeste 0 -- -- 76
2019-04-04 06:00:00 10 3 Nordeste 13 Nordeste 0 -- -- 81
2019-04-04 05:00:00 10.1 4 Norte 15 Norte 0 -- -- 81
2019-04-04 04:00:00 10.1 6 Nordeste 21 Norte 0.2 -- -- 85
2019-04-04 03:00:00 10.3 8 Norte 28 Norte 0 -- -- 86
2019-04-04 02:00:00 10.5 7 Norte 34 Nordeste 0.2 -- -- 88
2019-04-04 01:00:00 11.5 14 Norte 32 Noroeste 0 -- -- 88
2019-04-04 00:00:00 12.6 9 Norte 26 Noroeste 0 -- -- 81
2019-04-03 23:00:00 12.9 6 Oeste 19 Sudoeste 0 -- -- 91
2019-04-03 22:00:00 13.3 8 Sudoeste 22 Sudoeste 0 -- -- 89
2019-04-03 21:00:00 14.2 16 Sudoeste 24 Sudoeste 0 -- -- 86
2019-04-03 20:00:00 15.2 10 Sudoeste 27 Sudoeste 0 -- -- 78
2019-04-03 19:00:00 16.8 17 Sudoeste 29 Sudoeste 0 -- -- 72
2019-04-03 18:00:00 17.4 19 Sudoeste 32 Oeste 0 -- -- 72
2019-04-03 17:00:00 19 21 Sudoeste 34 Sudoeste 0 -- -- 65
2019-04-03 16:00:00 18.8 24 Sudoeste 37 Sudoeste 0 -- -- 65
2019-04-03 15:00:00 19.1 20 Sudoeste 36 Sudoeste 0 -- -- 64
2019-04-03 14:00:00 19.2 21 Sudoeste 34 Sur 0 -- -- 63
2019-04-03 13:00:00 18.5 15 Sudoeste 32 Sudoeste 0 -- -- 65
2019-04-03 12:00:00 17.4 18 Sudoeste 32 Sudoeste 0 -- -- 71
2019-04-03 11:00:00 16.7 14 Sudoeste 27 Sur 0 -- -- 75
2019-04-03 10:00:00 14.9 14 Sudoeste 24 Sudoeste 0 -- -- 80
2019-04-03 09:00:00 14.1 9 Sur 18 Sudoeste 0 -- -- 85
2019-04-03 08:00:00 13.4 8 Sudoeste 14 Sur 0 -- -- 90
2019-04-03 07:00:00 13.2 8 Sudoeste 14 Sur 0 -- -- 92
2019-04-03 06:00:00 13.1 9 Sudoeste 14 Sudoeste 0 -- -- 92
2019-04-03 05:00:00 12.8 4 Sur 12 Sudoeste 0 -- -- 91
2019-04-03 04:00:00 13.4 6 Sudoeste 13 Sudoeste 0 -- -- 90
2019-04-03 03:00:00 13.5 8 Sudoeste 11 Sudoeste 0 -- -- 92
2019-04-03 02:00:00 13.2 4 Sur 9 Sur 0 -- -- 92
2019-04-03 01:00:00 13.2 0 Calma 13 Sur 0 -- -- 90
2019-04-03 00:00:00 13.5 6 Sudoeste 18 Sudoeste 0 -- -- 91
2019-04-02 23:00:00 12.9 10 Sudoeste 17 Sudoeste 0 -- -- 93
2019-04-02 22:00:00 13.1 8 Sudoeste 16 Sudoeste 0 -- -- 89
2019-04-02 21:00:00 13.6 5 Sudoeste 19 Sudoeste 0 -- -- 85
2019-04-02 20:00:00 15 13 Sudoeste 28 Sudoeste 0 -- -- 77
2019-04-02 19:00:00 17.2 17 Sudoeste 28 Sudoeste 0 -- -- 68
2019-04-02 18:00:00 18.6 17 Sudoeste 30 Sudoeste 0 -- -- 62
2019-04-02 17:00:00 18.3 19 Sudoeste 33 Sudoeste 0 -- -- 61
2019-04-02 16:00:00 19.3 16 Sudoeste 31 Sudoeste 0 -- -- 58
2019-04-02 15:00:00 19.2 17 Sudoeste 29 Sudoeste 0 -- -- 56
2019-04-02 14:00:00 18.6 17 Sudoeste 31 Sudoeste 0 -- -- 57
2019-04-02 13:00:00 17.9 15 Sudoeste 30 Sudoeste 0 -- -- 61
2019-04-02 12:00:00 16.9 15 Sudoeste 25 Sur 0 -- -- 66
2019-04-02 11:00:00 16.1 13 Sudoeste 22 Sudoeste 0 -- -- 74
2019-04-02 10:00:00 14.4 10 Sudoeste 15 Sudoeste 0 -- -- 84
2019-04-02 09:00:00 12.4 5 Oeste 14 Sudoeste 0 -- -- 88
2019-04-02 08:00:00 10.4 8 Sudoeste 13 Sudoeste 0 -- -- 95
2019-04-02 07:00:00 7 0 Calma 3 Sudoeste 0 -- -- 94
2019-04-02 06:00:00 7.5 0 Calma 2 Sudoeste 0 -- -- 92
2019-04-02 05:00:00 8.6 2 Sudoeste 4 Oeste 0 -- -- 91
2019-04-02 04:00:00 8.7 0 Calma 4 Oeste 0 -- -- 92
2019-04-02 03:00:00 8.8 0 Calma 4 Sudoeste 0 -- -- 91
2019-04-02 02:00:00 9.4 0 Calma 5 Sudoeste 0 -- -- 88
2019-04-02 01:00:00 10.6 4 Sudoeste 8 Sudoeste 0 -- -- 85
2019-04-02 00:00:00 11.1 5 Sudoeste 9 Sudoeste 0 -- -- 87
2019-04-01 23:00:00 12.1 4 Oeste 6 Sudoeste 0 -- -- 85
2019-04-01 22:00:00 12.7 0 Calma 4 Sur 0 -- -- 85
2019-04-01 21:00:00 13.2 2 Sudoeste 5 Sudeste 0 -- -- 82
2019-04-01 20:00:00 14.3 4 Este 12 Este 0 -- -- 79
2019-04-01 19:00:00 15.3 5 Este 18 Este 0 -- -- 74
2019-04-01 18:00:00 17.4 9 Este 19 Sudeste 0 -- -- 68
2019-04-01 17:00:00 17.5 9 Sudeste 21 Sudeste 0 -- -- 67
2019-04-01 16:00:00 17.8 10 Sudeste 23 Sudeste 0 -- -- 60
2019-04-01 15:00:00 18.5 6 Este 16 Este 0 -- -- 50
2019-04-01 14:00:00 18.3 9 Nordeste 19 Este 0 -- -- 54
2019-04-01 13:00:00 16.5 6 Nordeste 15 Nordeste 0 -- -- 63
2019-04-01 12:00:00 15.1 8 Nordeste 16 Nordeste 0 -- -- 67
2019-04-01 11:00:00 13.8 6 Nordeste 13 Nordeste 0 -- -- 78
2019-04-01 10:00:00 13.2 3 Nordeste 11 Nordeste 0 -- -- 84
2019-04-01 09:00:00 12.3 5 Nordeste 9 Nordeste 0 -- -- 88
2019-04-01 08:00:00 12.1 3 Nordeste 10 Este 0 -- -- 86
2019-04-01 07:00:00 12.4 5 Este 13 Nordeste 0 -- -- 87
2019-04-01 06:00:00 12.4 4 Nordeste 12 Este 0 -- -- 87
2019-04-01 05:00:00 12.4 6 Nordeste 19 Nordeste 0 -- -- 88
2019-04-01 04:00:00 12.5 9 Nordeste 19 Nordeste 0 -- -- 89
2019-04-01 03:00:00 12.6 5 Este 21 Nordeste 0 -- -- 89
2019-04-01 02:00:00 12.6 12 Nordeste 22 Nordeste 0 -- -- 91
2019-04-01 01:00:00 12.6 10 Nordeste 20 Nordeste 0 -- -- 92
2019-04-01 00:00:00 12.8 5 Este 18 Nordeste 0 -- -- 93
2019-03-31 23:00:00 12.9 9 Nordeste 19 Este 0.2 -- -- 93
2019-03-31 22:00:00 12.9 9 Este 31 Nordeste 0 -- -- 92
2019-03-31 21:00:00 13.2 10 Nordeste 23 Nordeste 0.2 -- -- 93
2019-03-31 20:00:00 13.7 8 Nordeste 18 Nordeste 0 -- -- 90
2019-03-31 19:00:00 14.1 6 Nordeste 14 Nordeste 0 -- -- 90
2019-03-31 18:00:00 14.4 8 Este 17 Nordeste 0 -- -- 87
2019-03-31 17:00:00 14.7 7 Este 24 Este 0 -- -- 86
2019-03-31 16:00:00 14.8 9 Este 21 Este 0 -- -- 86
2019-03-31 15:00:00 14.9 12 Este 27 Nordeste 0 -- -- 83
2019-03-31 14:00:00 15.5 12 Este 31 Este 0 -- -- 80
2019-03-31 13:00:00 16.5 13 Este 32 Nordeste 0 -- -- 75
2019-03-31 12:00:00 15.9 13 Este 31 Este 0 -- -- 78
2019-03-31 11:00:00 15.5 14 Este 28 Este 0 -- -- 78
2019-03-31 10:00:00 15.3 14 Este 30 Nordeste 0 -- -- 80
2019-03-31 09:00:00 13.8 7 Este 15 Este 0 -- -- 91
2019-03-31 08:00:00 12.4 5 Nordeste 11 Nordeste 0 -- -- 94
2019-03-31 07:00:00 12.4 4 Nordeste 11 Nordeste 0 -- -- 95
2019-03-31 06:00:00 11.8 2 Nordeste 7 Nordeste 0 -- -- 94
2019-03-31 05:00:00 11.9 3 Nordeste 7 Nordeste 0 -- -- 94
2019-03-31 03:00:00 11.4 0 Calma 3 Nordeste 0 -- -- 94
2019-03-31 01:00:00 10.7 0 Calma 7 Nordeste 0 -- -- 91
2019-03-31 00:00:00 11.8 5 Nordeste 10 Este 0 -- -- 90
2019-03-30 23:00:00 12.4 5 Nordeste 10 Nordeste 0 -- -- 90
2019-03-30 22:00:00 12.4 4 Nordeste 11 Nordeste 0 -- -- 89
2019-03-30 21:00:00 12.9 6 Nordeste 16 Este 0 -- -- 86
2019-03-30 20:00:00 13.1 8 Nordeste 22 Nordeste 0 -- -- 86
2019-03-30 19:00:00 13.8 12 Este 25 Nordeste 0 -- -- 84
2019-03-30 18:00:00 14.5 13 Nordeste 24 Nordeste 0 -- -- 79
2019-03-30 17:00:00 15.1 13 Nordeste 27 Nordeste 0 -- -- 75
2019-03-30 16:00:00 16 12 Nordeste 26 Nordeste 0 -- -- 70
2019-03-30 15:00:00 15.7 11 Este 24 Este 0 -- -- 71
2019-03-30 14:00:00 16.7 12 Este 27 Nordeste 0 -- -- 66
2019-03-30 13:00:00 15.9 13 Este 23 Nordeste 0 -- -- 70
2019-03-30 12:00:00 16.4 8 Este 24 Este 0 -- -- 64
2019-03-30 11:00:00 16 10 Este 21 Nordeste 0 -- -- 62
2019-03-30 10:00:00 15.7 9 Este 22 Este 0 -- -- 62
2019-03-30 09:00:00 13.9 7 Este 17 Nordeste 0 -- -- 72
2019-03-30 08:00:00 8.8 0 Calma 3 Nordeste 0 -- -- 96
2019-03-30 07:00:00 5.6 0 Calma 3 Sur 0 -- -- 93
2019-03-30 06:00:00 6.3 2 Sudoeste 3 Sudoeste 0 -- -- 90
2019-03-30 05:00:00 7.3 2 Sur 3 Sur 0 -- -- 86
2019-03-30 04:00:00 8.6 2 Sudoeste 4 Sudoeste 0 -- -- 86
2019-03-30 03:00:00 8.9 0 Calma 3 Sudoeste 0 -- -- 86
2019-03-30 02:00:00 8.5 3 Sudoeste 4 Sudoeste 0 -- -- 90
2019-03-30 01:00:00 7.9 0 Calma 2 Nordeste 0 -- -- 90
2019-03-30 00:00:00 7.4 0 Calma 2 Sudoeste 0 -- -- 89
2019-03-29 23:00:00 8.8 0 Calma 4 Sudeste 0 -- -- 86
2019-03-29 22:00:00 8.2 0 Calma 5 Nordeste 0 -- -- 86
2019-03-29 21:00:00 9.2 3 Este 6 Este 0 -- -- 80
2019-03-29 20:00:00 10.9 4 Nordeste 10 Nordeste 0 -- -- 77
2019-03-29 19:00:00 13.4 5 Nordeste 16 Nordeste 0 -- -- 67
2019-03-29 18:00:00 14.1 6 Este 20 Este 0 -- -- 65
2019-03-29 17:00:00 16.3 10 Este 21 Este 0 -- -- 57
2019-03-29 16:00:00 16.9 9 Este 23 Este 0 -- -- 56
2019-03-29 15:00:00 17 10 Este 25 Sudeste 0 -- -- 53
2019-03-29 14:00:00 17.3 9 Este 23 Este 0 -- -- 55
2019-03-29 13:00:00 17 13 Este 26 Este 0 -- -- 47
2019-03-29 12:00:00 16.5 10 Este 27 Nordeste 0 -- -- 51
2019-03-29 11:00:00 16.3 11 Nordeste 28 Nordeste 0 -- -- 57
2019-03-29 10:00:00 15.3 13 Nordeste 27 Nordeste 0 -- -- 60
2019-03-29 09:00:00 13.4 6 Nordeste 14 Nordeste 0 -- -- 78
2019-03-29 08:00:00 8.6 0 Calma 13 Sudeste 0 -- -- 97
2019-03-29 07:00:00 4.3 0 Calma 4 Sudoeste 0 -- -- 95
2019-03-29 06:00:00 3.8 0 Calma 4 Sudoeste 0 -- -- 94
2019-03-29 05:00:00 4.2 3 Sudoeste 5 Sudoeste 0 -- -- 93
2019-03-29 04:00:00 4.3 0 Calma 4 Sur 0 -- -- 93
2019-03-29 03:00:00 4.5 0 Calma 2 Sur 0 -- -- 93
2019-03-29 02:00:00 4.9 0 Calma 3 Sudoeste 0 -- -- 91
2019-03-29 01:00:00 5.2 2 Sudoeste 4 Sudoeste 0 -- -- 88
2019-03-29 00:00:00 5.8 2 Sudoeste 4 Sur 0 -- -- 87
2019-03-28 23:00:00 6.6 0 Calma 5 Sudoeste 0 -- -- 83
2019-03-28 22:00:00 6.8 0 Calma 3 Sur 0 -- -- 78
2019-03-28 21:00:00 8.3 0 Calma 3 Sur 0 -- -- 75
2019-03-28 20:00:00 10.4 0 Calma 8 Nordeste 0 -- -- 66
2019-03-28 19:00:00 13.5 6 Nordeste 15 Nordeste 0 -- -- 54
2019-03-28 18:00:00 16.1 10 Nordeste 26 Nordeste 0 -- -- 47
2019-03-28 17:00:00 16.9 16 Nordeste 26 Nordeste 0 -- -- 46
2019-03-28 16:00:00 17.1 10 Nordeste 27 Nordeste 0 -- -- 51
2019-03-28 15:00:00 18.2 13 Nordeste 31 Nordeste 0 -- -- 39
2019-03-28 14:00:00 18 14 Nordeste 32 Nordeste 0 -- -- 39
2019-03-28 13:00:00 18.1 17 Nordeste 32 Nordeste 0 -- -- 40
2019-03-28 12:00:00 17.6 17 Nordeste 31 Nordeste 0 -- -- 46
2019-03-28 11:00:00 16.8 18 Nordeste 29 Norte 0 -- -- 47
2019-03-28 10:00:00 15.5 16 Nordeste 26 Nordeste 0 -- -- 50
2019-03-28 09:00:00 13.8 9 Norte 22 Nordeste 0 -- -- 63
2019-03-28 08:00:00 11.1 3 Norte 9 Noroeste 0 -- -- 78
2019-03-28 07:00:00 8.3 2 Norte 11 Norte 0 -- -- 84
2019-03-28 06:00:00 8.3 4 Nordeste 11 Nordeste 0 -- -- 82
2019-03-28 05:00:00 7.9 2 Este 7 Este 0 -- -- 79
2019-03-28 04:00:00 7.1 3 Nordeste 9 Nordeste 0 -- -- 81
2019-03-28 03:00:00 8.5 2 Nordeste 9 Nordeste 0 -- -- 78
2019-03-28 02:00:00 8.2 4 Nordeste 11 Nordeste 0 -- -- 76
2019-03-28 01:00:00 7.7 3 Sur 12 Oeste 0 -- -- 80
2019-03-28 00:00:00 7.2 4 Oeste 9 Oeste 0 -- -- 81
2019-03-27 23:00:00 6.3 2 Sudoeste 4 Sur 0 -- -- 82
2019-03-27 22:00:00 6.3 3 Sur 5 Sur 0 -- -- 80
2019-03-27 21:00:00 7.5 0 Calma 6 Sur 0 -- -- 80
2019-03-27 20:00:00 10.2 0 Calma 19 Norte 0 -- -- 73
2019-03-27 19:00:00 11.9 10 Norte 25 Norte 0 -- -- 67
2019-03-27 18:00:00 14.2 10 Norte 22 Norte 0 -- -- 59
2019-03-27 17:00:00 16.3 9 Norte 27 Nordeste 0 -- -- 47
2019-03-27 16:00:00 16.6 15 Nordeste 39 Nordeste 0 -- -- 37
2019-03-27 15:00:00 16.6 19 Nordeste 39 Nordeste 0 -- -- 37
2019-03-27 14:00:00 16.9 21 Nordeste 35 Nordeste 0 -- -- 47
2019-03-27 13:00:00 16.9 16 Norte 35 Este 0 -- -- 52
2019-03-27 12:00:00 16.9 14 Norte 28 Nordeste 0 -- -- 46
2019-03-27 11:00:00 15.8 11 Norte 28 Norte 0 -- -- 51
2019-03-27 10:00:00 14.9 12 Norte 29 Noroeste 0 -- -- 55
2019-03-27 09:00:00 13.8 11 Norte 27 Norte 0 -- -- 62
2019-03-27 08:00:00 12 5 Nordeste 19 Norte 0 -- -- 75
2019-03-27 07:00:00 10 5 Norte 18 Norte 0 -- -- 76
2019-03-27 06:00:00 10.3 10 Norte 28 Norte 0 -- -- 70
2019-03-27 05:00:00 9.7 10 Norte 26 Norte 0 -- -- 69
2019-03-27 04:00:00 4.3 0 Calma 4 Sur 0 -- -- 86
2019-03-27 03:00:00 5 3 Sudoeste 10 Noroeste 0 -- -- 82
2019-03-27 02:00:00 4.9 3 Este 5 Este 0 -- -- 88
2019-03-27 01:00:00 4 0 Calma 4 Nordeste 0 -- -- 83
2019-03-27 00:00:00 5.2 0 Calma 8 Sudoeste 0 -- -- 79
2019-03-26 23:00:00 5.1 2 Sur 4 Sudoeste 0 -- -- 79
2019-03-26 22:00:00 4.9 0 Calma 2 Norte 0 -- -- 79
2019-03-26 21:00:00 6.3 0 Calma 3 Nordeste 0 -- -- 73
2019-03-26 20:00:00 8.8 2 Este 15 Nordeste 0 -- -- 65
2019-03-26 19:00:00 11.1 7 Nordeste 30 Nordeste 0 -- -- 59
2019-03-26 18:00:00 13.1 16 Nordeste 40 Nordeste 0 -- -- 56
2019-03-26 17:00:00 13.5 17 Nordeste 41 Nordeste 0 -- -- 58
2019-03-26 16:00:00 14.2 19 Nordeste 45 Nordeste 0 -- -- 50
2019-03-26 15:00:00 14 16 Norte 45 Nordeste 0 -- -- 49
2019-03-26 14:00:00 13.7 21 Norte 49 Norte 0 -- -- 49
2019-03-26 13:00:00 14 24 Norte 47 Nordeste 0 -- -- 44
2019-03-26 12:00:00 14.1 24 Nordeste 54 Nordeste 0 -- -- 45
2019-03-26 11:00:00 13.8 22 Norte 54 Norte 0 -- -- 41
2019-03-26 10:00:00 13.8 20 Norte 45 Norte 0 -- -- 40
2019-03-26 09:00:00 13.3 16 Norte 39 Noroeste 0 -- -- 38
2019-03-26 08:00:00 12.3 15 Norte 38 Norte 0 -- -- 41
2019-03-26 07:00:00 10.7 10 Norte 33 Norte 0 -- -- 58
2019-03-26 06:00:00 7.4 3 Nordeste 9 Norte 0 -- -- 95
2019-03-26 05:00:00 7.8 0 Calma 6 Nordeste 0 -- -- 95
2019-03-26 04:00:00 6.5 0 Calma 3 Nordeste 0 -- -- 95
2019-03-26 03:00:00 6.9 0 Calma 3 Sudoeste 0 -- -- 94
2019-03-26 02:00:00 7.3 0 Calma 6 Este 0 -- -- 92
2019-03-26 01:00:00 7.5 2 Sur 6 Este 0 -- -- 92
2019-03-26 00:00:00 8 3 Sudeste 5 Este 0 -- -- 90
2019-03-25 23:00:00 8.8 3 Sudeste 5 Sudeste 0 -- -- 90
2019-03-25 22:00:00 9.4 3 Nordeste 5 Este 0 -- -- 85
2019-03-25 21:00:00 11.3 3 Este 10 Este 0 -- -- 79
2019-03-25 20:00:00 12.4 5 Sudeste 10 Sudeste 0 -- -- 75
2019-03-25 19:00:00 14.3 6 Este 21 Este 0 -- -- 67
2019-03-25 18:00:00 17.1 10 Este 20 Sudeste 0 -- -- 60
2019-03-25 17:00:00 18.8 9 Este 21 Nordeste 0 -- -- 45
2019-03-25 16:00:00 19.8 9 Este 21 Este 0 -- -- 41
2019-03-25 15:00:00 20.1 11 Este 27 Nordeste 0 -- -- 41
2019-03-25 14:00:00 20.7 12 Nordeste 31 Este 0 -- -- 41
2019-03-25 13:00:00 20.6 15 Nordeste 33 Este 0 -- -- 42
2019-03-25 12:00:00 20.4 15 Nordeste 36 Este 0 -- -- 43
2019-03-25 11:00:00 20 17 Nordeste 32 Nordeste 0 -- -- 39
2019-03-25 10:00:00 18.3 14 Nordeste 26 Nordeste 0 -- -- 48
2019-03-25 09:00:00 13.7 2 Sudoeste 4 Noroeste 0 -- -- 83
2019-03-25 08:00:00 8.2 0 Calma 3 Norte 0 -- -- 97
2019-03-25 07:00:00 5.4 0 Calma 3 Sur 0 -- -- 95
2019-03-25 06:00:00 5.5 0 Calma 3 Sudoeste 0 -- -- 95
2019-03-25 05:00:00 5.8 0 Calma 3 Este 0 -- -- 94
2019-03-25 04:00:00 5.9 0 Calma 5 Este 0 -- -- 93
2019-03-25 03:00:00 6.6 2 Sudeste 4 Este 0 -- -- 92
2019-03-25 02:00:00 7.6 0 Calma 4 Sur 0 -- -- 91
2019-03-25 01:00:00 8.4 0 Calma 6 Sudoeste 0 -- -- 90
2019-03-25 00:00:00 8 2 Sudoeste 4 Este 0 -- -- 87